Time;durP1;ratioP1;P1;durP2;ratioP2;P2;SDS_P1;SDS_P2;PMS_P1;PMS_P2;Temp;Humidity;BMP_temperature;BMP_pressure;BME280_temperature;BME280_humidity;BME280_pressure;Samples;Min_cycle;Max_cycle;Signal;HPM_P1;HPM_P2
2022/01/14 00:00:22;;;;;;;;;21.75;21.75;15.30;99.90;;;;;;5017347;28;11634;-49
2022/01/14 00:02:52;;;;;;;;;24.00;24.00;15.30;99.90;;;;;;5011492;28;11574;-47
2022/01/14 00:05:24;;;;;;;;;21.00;21.00;15.30;99.90;;;;;;5011353;28;11598;-51
2022/01/14 00:07:54;;;;;;;;;19.00;18.50;15.20;99.90;;;;;;5016132;28;11472;-46
2022/01/14 00:10:29;;;;;;;;;22.25;21.25;15.20;99.90;;;;;;5011064;28;11537;-49
2022/01/14 00:13:05;;;;;;;;;23.00;23.00;15.20;99.90;;;;;;4991627;28;11515;-47
2022/01/14 00:15:36;;;;;;;;;34.75;32.50;15.20;99.90;;;;;;5006142;28;11864;-51
2022/01/14 00:18:06;;;;;;;;;34.25;32.50;15.20;99.90;;;;;;4997261;28;11543;-51
2022/01/14 00:20:37;;;;;;;;;26.25;26.25;15.20;99.90;;;;;;5009028;28;11549;-52
2022/01/14 00:23:08;;;;;;;;;21.75;21.75;15.20;99.90;;;;;;4995365;28;11522;-48
2022/01/14 00:31:55;;;;;;;;;9.75;9.75;15.10;99.90;;;;;;5016001;28;11151;-49
2022/01/14 00:34:27;;;;;;;;;4.00;4.00;15.10;99.90;;;;;;5000894;28;10890;-50
2022/01/14 00:37:00;;;;;;;;;3.75;3.75;15.10;99.90;;;;;;4997138;28;10685;-48
2022/01/14 00:39:30;;;;;;;;;3.00;3.00;15.20;99.90;;;;;;5015074;28;10831;-51
2022/01/14 00:42:04;;;;;;;;;5.00;3.25;15.10;99.90;;;;;;4999652;28;10761;-51
2022/01/14 00:44:35;;;;;;;;;5.00;4.25;15.10;99.90;;;;;;5014893;28;10779;-50
2022/01/14 00:47:06;;;;;;;;;3.00;3.00;15.10;99.90;;;;;;5015190;28;13387;-50
2022/01/14 00:49:35;;;;;;;;;6.00;4.25;15.10;99.90;;;;;;5017152;28;10798;-49
2022/01/14 00:52:06;;;;;;;;;2.50;2.50;15.10;99.90;;;;;;5014320;28;10738;-50
2022/01/14 00:54:36;;;;;;;;;3.25;3.25;15.10;99.90;;;;;;5012195;28;10783;-47
2022/01/14 00:59:44;;;;;;;;;3.00;3.00;15.10;99.90;;;;;;5016548;28;10827;-47
2022/01/14 01:02:14;;;;;;;;;2.50;2.50;15.10;99.90;;;;;;5016447;28;10855;-46
2022/01/14 01:04:44;;;;;;;;;1.00;1.00;15.00;99.90;;;;;;5015477;28;10620;-49
2022/01/14 01:07:17;;;;;;;;;3.00;3.00;15.00;99.90;;;;;;5013304;28;10793;-51
2022/01/14 01:09:50;;;;;;;;;3.50;3.50;15.00;99.90;;;;;;5014247;28;10920;-51
2022/01/14 01:15:21;;;;;;;;;2.75;2.75;15.00;99.90;;;;;;5001279;28;10849;-49
2022/01/14 01:17:52;;;;;;;;;3.00;3.00;15.00;99.90;;;;;;5014796;28;10758;-50
2022/01/14 01:20:27;;;;;;;;;1.75;1.75;15.00;99.90;;;;;;5015774;28;10809;-52
2022/01/14 01:22:58;;;;;;;;;3.00;2.00;15.00;99.90;;;;;;5012374;28;10881;-50
2022/01/14 01:25:52;;;;;;;;;1.50;1.50;15.00;99.90;;;;;;4996935;28;10763;-51
2022/01/14 01:28:22;;;;;;;;;3.75;3.75;14.90;99.90;;;;;;5014549;28;10907;-48
2022/01/14 01:33:34;;;;;;;;;2.00;2.00;14.80;99.90;;;;;;5012841;28;11038;-49
2022/01/14 01:36:04;;;;;;;;;3.25;3.25;14.90;99.90;;;;;;5011929;28;11839;-48
2022/01/14 01:38:35;;;;;;;;;4.50;4.00;14.90;99.90;;;;;;5014550;28;10914;-49
2022/01/14 01:41:07;;;;;;;;;4.50;4.50;14.90;99.90;;;;;;5011043;28;11086;-48
2022/01/14 01:43:37;;;;;;;;;4.50;3.75;14.80;99.90;;;;;;4999847;28;10769;-51
2022/01/14 01:46:08;;;;;;;;;3.00;3.00;14.80;99.90;;;;;;5001815;28;10949;-50
2022/01/14 01:48:44;;;;;;;;;3.25;3.25;14.80;99.90;;;;;;5016448;28;10812;-46
2022/01/14 01:51:14;;;;;;;;;2.75;2.75;14.80;99.90;;;;;;4997539;28;10828;-49
2022/01/14 01:53:48;;;;;;;;;4.50;3.00;14.80;99.90;;;;;;5002185;28;10952;-49
2022/01/14 01:56:18;;;;;;;;;3.50;3.25;14.80;99.90;;;;;;5008608;28;11016;-48
2022/01/14 01:58:56;;;;;;;;;3.50;3.50;14.80;99.90;;;;;;5011063;28;10889;-47
2022/01/14 02:01:26;;;;;;;;;6.25;4.75;14.70;99.90;;;;;;4990952;28;11145;-46
2022/01/14 02:03:58;;;;;;;;;3.00;3.00;14.70;99.90;;;;;;5011090;28;11154;-48
2022/01/14 02:06:29;;;;;;;;;5.25;5.25;14.70;99.90;;;;;;5011905;28;11843;-50
2022/01/14 02:09:00;;;;;;;;;4.25;4.25;14.70;99.90;;;;;;5012776;28;11070;-48
2022/01/14 02:11:32;;;;;;;;;4.00;4.00;14.60;99.90;;;;;;5013603;28;11853;-49
2022/01/14 02:14:12;;;;;;;;;5.00;5.00;14.60;99.90;;;;;;5010180;28;11302;-46
2022/01/14 02:17:27;;;;;;;;;4.50;2.75;14.60;99.90;;;;;;5013231;28;11119;-50
2022/01/14 02:22:56;;;;;;;;;5.00;5.00;14.60;99.90;;;;;;5015351;28;11196;-52
2022/01/14 02:25:30;;;;;;;;;6.00;4.50;14.60;99.90;;;;;;5013861;28;11264;-52
2022/01/14 02:28:07;;;;;;;;;4.75;4.75;14.60;99.90;;;;;;5011959;28;11208;-48
2022/01/14 02:30:41;;;;;;;;;4.00;3.00;14.50;99.90;;;;;;5014214;28;11423;-49
2022/01/14 02:33:14;;;;;;;;;6.00;4.25;14.50;99.90;;;;;;5012911;28;11050;-51
2022/01/14 02:35:47;;;;;;;;;5.25;4.75;14.50;99.90;;;;;;5013267;28;11248;-49
2022/01/14 02:38:19;;;;;;;;;5.75;4.50;14.40;99.90;;;;;;4997949;28;11557;-47
2022/01/14 02:40:51;;;;;;;;;6.00;6.00;14.40;99.90;;;;;;4996014;28;11844;-48
2022/01/14 02:43:22;;;;;;;;;8.00;5.00;14.40;99.90;;;;;;4999799;28;11446;-49
2022/01/14 02:45:56;;;;;;;;;4.25;4.25;14.40;99.90;;;;;;4996840;28;11451;-51
2022/01/14 02:48:29;;;;;;;;;2.50;2.50;14.30;99.90;;;;;;5016412;28;11515;-46
2022/01/14 02:51:12;;;;;;;;;4.50;4.50;14.30;99.90;;;;;;5018810;28;11135;-49
2022/01/14 02:53:57;;;;;;;;;5.00;5.00;14.30;99.90;;;;;;5014802;28;11145;-50
2022/01/14 02:56:31;;;;;;;;;3.25;2.50;14.30;99.90;;;;;;5016406;28;11274;-50
2022/01/14 02:59:02;;;;;;;;;3.00;3.00;14.20;99.90;;;;;;5012352;28;11064;-49
2022/01/14 03:01:34;;;;;;;;;5.00;3.00;14.20;99.90;;;;;;5017748;28;11043;-49
2022/01/14 03:04:09;;;;;;;;;6.00;6.00;14.20;99.90;;;;;;5013895;28;11260;-51
2022/01/14 03:06:45;;;;;;;;;7.25;4.75;14.10;99.90;;;;;;5017905;28;11373;-47
2022/01/14 03:09:18;;;;;;;;;4.00;4.00;14.20;99.90;;;;;;5000941;28;11454;-49
2022/01/14 03:11:53;;;;;;;;;4.75;4.75;14.20;99.90;;;;;;5013070;28;11226;-50
2022/01/14 03:14:25;;;;;;;;;4.50;4.00;14.20;99.90;;;;;;5014750;28;11472;-50
2022/01/14 03:16:59;;;;;;;;;5.00;4.50;14.20;99.90;;;;;;5017421;28;11731;-53
2022/01/14 03:19:30;;;;;;;;;5.00;3.75;14.10;99.90;;;;;;5002367;28;11476;-51
2022/01/14 03:22:18;;;;;;;;;6.00;5.25;14.10;99.90;;;;;;4995902;28;12372;-49
2022/01/14 03:27:20;;;;;;;;;6.00;4.25;14.10;99.90;;;;;;5011277;28;11422;-49
2022/01/14 03:29:51;;;;;;;;;5.50;5.50;14.00;99.90;;;;;;5013732;28;11478;-51
2022/01/14 03:32:22;;;;;;;;;8.25;6.00;14.00;99.90;;;;;;5015434;28;11444;-50
2022/01/14 03:34:53;;;;;;;;;3.00;3.00;14.00;99.90;;;;;;5012057;28;11459;-51
2022/01/14 03:37:23;;;;;;;;;6.75;6.75;14.00;99.90;;;;;;5016775;28;11466;-49
2022/01/14 03:39:55;;;;;;;;;3.50;3.50;14.00;99.90;;;;;;5000866;28;11404;-48
2022/01/14 03:42:25;;;;;;;;;6.00;6.00;13.90;99.90;;;;;;5014405;28;11561;-51
2022/01/14 03:44:56;;;;;;;;;7.00;7.00;13.90;99.90;;;;;;5018738;28;11437;-50
2022/01/14 03:47:28;;;;;;;;;5.25;5.00;13.80;99.90;;;;;;4999724;28;11445;-48
2022/01/14 03:49:59;;;;;;;;;8.25;6.50;13.80;99.90;;;;;;5017265;28;11457;-47
2022/01/14 03:52:31;;;;;;;;;5.25;4.00;13.70;99.90;;;;;;5002354;28;11468;-46
2022/01/14 03:55:03;;;;;;;;;6.25;6.25;13.70;99.90;;;;;;5015708;28;11530;-46
2022/01/14 03:57:46;;;;;;;;;7.00;7.00;13.70;99.90;;;;;;4996603;28;11442;-51
2022/01/14 04:00:19;;;;;;;;;9.25;8.00;13.70;99.90;;;;;;5019639;28;11488;-50
2022/01/14 04:02:49;;;;;;;;;11.00;10.50;13.70;99.90;;;;;;5022665;28;11418;-51
2022/01/14 04:05:20;;;;;;;;;8.00;8.00;13.70;99.90;;;;;;5009572;28;11518;-50
2022/01/14 04:07:51;;;;;;;;;12.00;12.00;13.70;99.90;;;;;;4994742;28;11615;-48
2022/01/14 04:10:22;;;;;;;;;11.50;11.50;13.60;99.90;;;;;;5015456;28;11493;-49
2022/01/14 04:15:37;;;;;;;;;9.50;9.00;13.50;99.90;;;;;;5014474;28;11464;-50
2022/01/14 04:18:09;;;;;;;;;16.25;14.50;13.50;99.90;;;;;;5014913;28;11499;-49
2022/01/14 04:20:43;;;;;;;;;17.00;13.25;13.50;99.90;;;;;;5014045;28;11599;-51
2022/01/14 04:23:18;;;;;;;;;11.25;11.25;13.50;99.90;;;;;;5012150;28;11493;-49
2022/01/14 04:25:53;;;;;;;;;10.75;9.00;13.50;99.90;;;;;;5014442;28;11569;-51
2022/01/14 04:28:30;;;;;;;;;8.50;8.50;13.50;99.90;;;;;;5016046;28;12165;-47
2022/01/14 04:31:00;;;;;;;;;9.00;9.00;13.50;99.90;;;;;;5016964;28;11482;-49
2022/01/14 04:33:32;;;;;;;;;9.25;9.25;13.50;99.90;;;;;;5013231;28;11588;-49
2022/01/14 04:36:05;;;;;;;;;3.25;3.25;13.40;99.90;;;;;;5013563;28;12203;-49
2022/01/14 04:38:35;;;;;;;;;10.50;10.00;13.40;99.90;;;;;;4997782;28;11437;-48
2022/01/14 04:41:08;;;;;;;;;7.50;7.50;13.40;99.90;;;;;;5015959;28;11444;-48
2022/01/14 04:43:44;;;;;;;;;10.25;9.50;13.40;99.90;;;;;;4981271;28;11416;-48
2022/01/14 04:46:49;;;;;;;;;10.50;9.75;13.40;99.90;;;;;;5017203;28;11582;-47
2022/01/14 04:49:05;;;;;;;;;7.50;7.50;13.30;99.90;;;;;;5014937;28;11646;-47
2022/01/14 04:51:38;;;;;;;;;9.75;9.75;13.30;99.90;;;;;;5015254;28;11432;-50
2022/01/14 04:54:11;;;;;;;;;12.25;10.00;13.20;99.90;;;;;;5016873;28;12352;-47
2022/01/14 04:56:45;;;;;;;;;5.00;5.00;13.20;99.90;;;;;;5015764;28;11520;-50
2022/01/14 04:59:15;;;;;;;;;9.25;9.25;13.10;99.90;;;;;;5017561;28;12250;-48
2022/01/14 05:01:47;;;;;;;;;8.50;8.50;13.20;99.90;;;;;;5014146;28;11510;-49
2022/01/14 05:04:19;;;;;;;;;11.00;10.00;13.20;99.90;;;;;;5014218;28;11433;-47
2022/01/14 05:06:57;;;;;;;;;10.75;10.75;13.20;99.90;;;;;;5012895;28;11604;-51
2022/01/14 05:09:35;;;;;;;;;12.50;11.00;13.20;99.90;;;;;;5000411;28;11604;-50
2022/01/14 05:12:08;;;;;;;;;9.00;9.00;13.20;99.90;;;;;;5014841;28;11538;-47
2022/01/14 05:14:44;;;;;;;;;14.50;11.50;13.10;99.90;;;;;;5015961;28;11582;-48
2022/01/14 05:17:15;;;;;;;;;16.25;15.25;13.10;99.90;;;;;;5015240;28;13421;-48
2022/01/14 05:19:47;;;;;;;;;17.75;15.75;13.10;99.90;;;;;;5002432;28;11627;-48
2022/01/14 05:22:18;;;;;;;;;11.00;11.00;13.10;99.90;;;;;;5015722;28;11524;-51
2022/01/14 05:24:48;;;;;;;;;19.75;18.75;13.00;99.90;;;;;;5015593;28;11556;-48
2022/01/14 05:27:20;;;;;;;;;18.25;18.25;13.00;99.90;;;;;;5010402;28;11534;-47
2022/01/14 05:29:50;;;;;;;;;17.25;16.00;13.00;99.90;;;;;;5013408;28;11550;-47
2022/01/14 05:32:22;;;;;;;;;17.50;16.00;12.90;99.90;;;;;;5008374;28;11619;-50
2022/01/14 05:34:53;;;;;;;;;16.50;16.50;12.90;99.90;;;;;;5015343;28;11526;-47
2022/01/14 05:37:24;;;;;;;;;15.25;15.00;12.90;99.90;;;;;;5015457;28;11569;-48
2022/01/14 05:39:57;;;;;;;;;18.25;18.00;12.90;99.90;;;;;;5011045;28;11534;-51
2022/01/14 05:42:33;;;;;;;;;19.25;18.50;12.90;99.90;;;;;;5011235;28;11522;-48
2022/01/14 05:45:09;;;;;;;;;15.75;15.75;12.80;99.90;;;;;;4998010;28;11569;-49
2022/01/14 05:47:43;;;;;;;;;14.50;14.00;12.80;99.90;;;;;;5015607;28;12380;-49
2022/01/14 05:50:17;;;;;;;;;18.50;18.50;12.80;99.90;;;;;;5017101;28;11545;-46
2022/01/14 05:52:48;;;;;;;;;16.75;16.75;12.80;99.90;;;;;;4995221;28;11667;-47
2022/01/14 05:55:22;;;;;;;;;13.75;13.50;12.80;99.90;;;;;;5013651;28;11562;-49
2022/01/14 05:57:52;;;;;;;;;18.50;17.00;12.80;99.90;;;;;;5013158;28;11555;-48
2022/01/14 06:00:23;;;;;;;;;15.50;15.50;12.80;99.90;;;;;;5012111;28;11619;-47
2022/01/14 06:02:55;;;;;;;;;15.75;15.75;12.80;99.90;;;;;;4992312;28;11513;-49
2022/01/14 06:05:26;;;;;;;;;16.75;14.75;12.80;99.90;;;;;;5008455;28;12303;-50
2022/01/14 06:07:56;;;;;;;;;16.25;16.00;12.70;99.90;;;;;;4994084;28;11575;-46
2022/01/14 06:10:26;;;;;;;;;14.50;14.50;12.70;99.90;;;;;;5011751;28;12139;-48
2022/01/14 06:12:57;;;;;;;;;18.75;16.75;12.60;99.90;;;;;;5013507;28;11767;-51
2022/01/14 06:15:29;;;;;;;;;13.75;13.75;12.60;99.90;;;;;;5014089;28;11540;-54
2022/01/14 06:18:00;;;;;;;;;16.25;16.25;12.60;99.90;;;;;;5015750;28;11663;-46
2022/01/14 06:20:33;;;;;;;;;21.50;17.00;12.60;99.90;;;;;;5010863;28;11580;-51
2022/01/14 06:23:04;;;;;;;;;19.75;19.75;12.60;99.90;;;;;;5015245;28;11607;-47
2022/01/14 06:25:35;;;;;;;;;21.00;21.00;12.60;99.90;;;;;;5014436;28;11590;-48
2022/01/14 06:28:06;;;;;;;;;20.75;19.75;12.60;99.90;;;;;;5012480;28;11630;-47
2022/01/14 06:30:37;;;;;;;;;17.00;17.00;12.50;99.90;;;;;;5014601;28;11641;-47
2022/01/14 06:33:08;;;;;;;;;21.75;21.75;12.50;99.90;;;;;;5014273;28;11562;-46
2022/01/14 06:35:39;;;;;;;;;17.00;17.00;12.50;99.90;;;;;;5011111;28;11544;-47
2022/01/14 06:38:11;;;;;;;;;16.25;14.75;12.50;99.90;;;;;;5014305;28;11579;-48
2022/01/14 06:40:48;;;;;;;;;20.75;20.00;12.40;99.90;;;;;;5010228;28;11521;-48
2022/01/14 06:43:20;;;;;;;;;16.75;16.75;12.40;99.90;;;;;;4994344;28;12315;-46
2022/01/14 06:45:50;;;;;;;;;24.00;24.00;12.40;99.90;;;;;;5011862;28;11521;-51
2022/01/14 06:48:21;;;;;;;;;19.00;19.00;12.40;99.90;;;;;;5011931;28;11544;-53
2022/01/14 06:50:52;;;;;;;;;25.50;22.00;12.30;99.90;;;;;;5013095;28;11679;-49
2022/01/14 06:53:22;;;;;;;;;17.00;17.00;12.30;99.90;;;;;;5015317;28;11626;-50
2022/01/14 06:55:54;;;;;;;;;18.75;18.75;12.30;99.90;;;;;;5015883;28;11556;-48
2022/01/14 06:58:25;;;;;;;;;18.75;18.75;12.30;99.90;;;;;;5010996;28;11573;-48
2022/01/14 07:00:55;;;;;;;;;17.75;16.75;12.30;99.90;;;;;;5015251;28;11621;-48
2022/01/14 07:03:27;;;;;;;;;20.25;20.25;12.20;99.90;;;;;;4995386;28;11533;-49
2022/01/14 07:05:58;;;;;;;;;21.00;19.75;12.30;99.90;;;;;;4995905;28;11547;-46
2022/01/14 07:08:29;;;;;;;;;20.25;20.25;12.20;99.90;;;;;;5016070;28;11556;-47
2022/01/14 07:11:01;;;;;;;;;21.25;20.00;12.20;99.90;;;;;;4993155;28;11615;-47
2022/01/14 07:13:33;;;;;;;;;17.00;17.00;12.20;99.90;;;;;;5004127;28;11541;-48
2022/01/14 07:16:08;;;;;;;;;12.75;12.75;12.10;99.90;;;;;;5000749;28;11608;-47
2022/01/14 07:18:48;;;;;;;;;16.50;16.50;12.10;99.90;;;;;;5013419;28;12132;-48
2022/01/14 07:21:18;;;;;;;;;29.50;27.25;12.10;99.90;;;;;;5003326;28;12798;-51
2022/01/14 07:23:50;;;;;;;;;29.50;29.50;12.10;99.90;;;;;;5006670;28;11631;-49
2022/01/14 07:26:22;;;;;;;;;32.75;31.50;12.00;99.90;;;;;;5007884;28;11582;-49
2022/01/14 07:28:53;;;;;;;;;46.25;39.25;12.00;99.90;;;;;;5010454;28;11651;-50
2022/01/14 07:31:24;;;;;;;;;38.50;35.25;12.00;99.90;;;;;;5011297;28;11709;-49
2022/01/14 07:33:55;;;;;;;;;41.00;35.25;12.00;99.90;;;;;;5011799;28;11716;-50
2022/01/14 07:36:27;;;;;;;;;36.50;34.50;12.00;99.90;;;;;;5011227;28;11548;-49
2022/01/14 07:38:57;;;;;;;;;23.50;23.50;12.00;99.90;;;;;;5010274;28;11737;-48
2022/01/14 07:41:28;;;;;;;;;23.00;22.25;12.00;99.90;;;;;;5006444;28;11571;-47
2022/01/14 07:44:03;;;;;;;;;39.33;34.33;12.00;99.90;;;;;;4978012;28;11610;-51
2022/01/14 07:46:35;;;;;;;;;40.00;36.67;12.00;99.90;;;;;;4984184;28;11668;-48
2022/01/14 07:49:06;;;;;;;;;38.00;35.33;12.00;99.90;;;;;;5011189;28;8818;-49
2022/01/14 07:51:37;;;;;;;;;35.00;32.67;12.00;99.90;;;;;;5010678;28;8884;-50
2022/01/14 07:54:08;;;;;;;;;30.33;30.33;12.00;99.90;;;;;;5009014;28;8846;-51
2022/01/14 07:56:47;;;;;;;;;20.00;18.33;11.90;99.90;;;;;;5011616;28;8872;-49
2022/01/14 07:59:24;;;;;;;;;21.67;21.67;11.90;99.90;;;;;;5009707;28;8830;-48
2022/01/14 08:02:00;;;;;;;;;32.00;31.67;11.90;99.90;;;;;;5012130;28;8854;-51
2022/01/14 08:04:35;;;;;;;;;37.67;34.33;11.90;99.90;;;;;;5010803;28;8842;-51
2022/01/14 08:07:08;;;;;;;;;45.67;40.33;11.90;99.90;;;;;;5008290;28;8826;-50
2022/01/14 08:09:46;;;;;;;;;48.33;42.00;11.90;99.90;;;;;;5011854;28;8873;-49
2022/01/14 08:12:18;;;;;;;;;48.33;42.00;11.80;99.90;;;;;;5008413;28;8842;-51
2022/01/14 08:14:49;;;;;;;;;50.33;42.33;11.80;99.90;;;;;;5011880;28;8876;-49
2022/01/14 08:17:22;;;;;;;;;52.00;43.00;11.80;99.90;;;;;;5009594;28;8870;-51
2022/01/14 08:19:52;;;;;;;;;46.50;41.00;11.80;99.90;;;;;;5010550;28;8881;-48
2022/01/14 08:22:24;;;;;;;;;44.75;39.50;11.80;99.90;;;;;;5010473;28;8845;-49
2022/01/14 08:24:56;;;;;;;;;42.25;38.00;11.80;99.90;;;;;;4993144;28;8854;-51
2022/01/14 08:27:27;;;;;;;;;52.25;41.75;11.70;99.90;;;;;;5008983;28;9581;-51
2022/01/14 08:29:57;;;;;;;;;47.50;41.25;11.80;99.90;;;;;;5010927;28;8869;-50
2022/01/14 08:32:27;;;;;;;;;51.50;44.00;11.70;99.90;;;;;;5011396;28;8900;-50
2022/01/14 08:34:59;;;;;;;;;50.75;42.50;11.70;99.90;;;;;;5009886;28;8892;-51
2022/01/14 08:37:30;;;;;;;;;56.75;47.50;11.70;99.90;;;;;;5010999;28;8896;-50
2022/01/14 08:40:03;;;;;;;;;58.50;49.75;11.70;99.90;;;;;;5010559;28;8847;-49
2022/01/14 08:42:34;;;;;;;;;27.75;27.75;11.70;99.90;;;;;;5013612;28;8839;-48
2022/01/14 08:45:05;;;;;;;;;54.33;46.67;11.60;99.90;;;;;;4997490;28;9919;-47
2022/01/14 08:47:42;;;;;;;;;59.00;50.00;11.60;99.90;;;;;;5012538;28;8852;-51
2022/01/14 08:50:12;;;;;;;;;58.50;49.50;11.60;99.90;;;;;;5013025;28;8996;-48
2022/01/14 08:52:43;;;;;;;;;52.67;44.33;11.60;99.90;;;;;;5013056;28;8856;-49
2022/01/14 08:55:16;;;;;;;;;50.67;43.67;11.60;99.90;;;;;;5003327;28;8863;-47
2022/01/14 08:57:46;;;;;;;;;53.67;46.33;11.60;99.90;;;;;;4994356;28;8842;-50
2022/01/14 09:00:19;;;;;;;;;52.33;45.33;11.50;99.90;;;;;;4996194;28;8834;-51
2022/01/14 09:02:53;;;;;;;;;46.33;41.33;11.50;99.90;;;;;;5016107;28;8854;-51
2022/01/14 09:05:25;;;;;;;;;40.67;36.00;11.50;99.90;;;;;;5012731;28;8857;-50
2022/01/14 09:07:58;;;;;;;;;51.33;43.00;11.50;99.90;;;;;;5016191;28;8835;-50
2022/01/14 09:10:30;;;;;;;;;46.67;41.67;11.50;99.90;;;;;;5012406;28;8939;-46
2022/01/14 09:13:00;;;;;;;;;47.00;41.67;11.50;99.90;;;;;;5012520;28;8853;-50
2022/01/14 09:15:32;;;;;;;;;55.33;46.33;11.40;99.90;;;;;;5016741;28;8977;-49
2022/01/14 09:18:04;;;;;;;;;60.00;50.25;11.40;99.90;;;;;;5015934;28;8846;-50
2022/01/14 09:20:36;;;;;;;;;56.50;48.25;11.30;99.90;;;;;;5014459;28;8833;-47
2022/01/14 09:23:15;;;;;;;;;55.00;46.50;11.30;99.90;;;;;;5013921;28;8838;-50
2022/01/14 09:25:45;;;;;;;;;58.00;49.00;11.30;99.90;;;;;;5015165;28;8838;-48
2022/01/14 09:28:17;;;;;;;;;59.25;49.75;11.30;99.90;;;;;;5013437;28;8830;-48
2022/01/14 09:30:49;;;;;;;;;54.00;44.67;11.30;99.90;;;;;;5019962;28;8854;-47
2022/01/14 09:33:21;;;;;;;;;58.25;48.50;11.40;99.90;;;;;;5011805;28;8955;-47
2022/01/14 09:35:51;;;;;;;;;54.67;47.00;11.30;99.90;;;;;;5012990;28;8992;-49
2022/01/14 09:38:22;;;;;;;;;54.00;45.67;11.20;99.90;;;;;;4981107;28;8842;-50
2022/01/14 09:40:54;;;;;;;;;56.50;47.75;11.20;99.90;;;;;;4993270;28;8876;-49
2022/01/14 09:43:26;;;;;;;;;56.25;47.75;11.10;99.90;;;;;;5013577;28;9004;-48
2022/01/14 09:46:06;;;;;;;;;57.33;49.00;11.10;99.90;;;;;;5012385;28;8837;-49
2022/01/14 09:48:39;;;;;;;;;34.67;33.33;11.10;99.90;;;;;;5009302;28;8872;-48
2022/01/14 09:51:11;;;;;;;;;28.33;28.33;11.20;99.90;;;;;;5013283;28;8826;-48
2022/01/14 09:53:45;;;;;;;;;26.00;26.00;11.20;99.90;;;;;;5012782;28;8896;-48
2022/01/14 09:56:18;;;;;;;;;33.00;31.00;11.10;99.90;;;;;;5010442;28;8858;-49
2022/01/14 09:58:51;;;;;;;;;33.00;31.67;11.10;99.90;;;;;;5010931;28;8826;-51
2022/01/14 10:01:24;;;;;;;;;25.75;25.75;11.00;99.90;;;;;;5014319;28;8862;-49
2022/01/14 10:03:57;;;;;;;;;20.00;20.00;11.10;99.90;;;;;;5016281;28;8873;-49
2022/01/14 10:06:50;;;;;;;;;20.75;20.75;11.10;99.90;;;;;;5014424;28;11543;-50
2022/01/14 10:09:32;;;;;;;;;28.00;26.50;11.10;99.90;;;;;;5009830;28;11604;-48
2022/01/14 10:12:16;;;;;;;;;21.25;20.00;11.00;99.90;;;;;;5014827;28;12286;-51
2022/01/14 10:15:08;;;;;;;;;23.25;23.25;10.90;99.90;;;;;;5015101;28;11615;-51
2022/01/14 10:17:46;;;;;;;;;22.00;22.00;10.90;99.90;;;;;;5014854;28;11541;-48
2022/01/14 10:20:21;;;;;;;;;23.00;22.25;10.80;99.90;;;;;;5011840;28;12375;-47
2022/01/14 10:22:51;;;;;;;;;21.25;21.25;10.90;99.90;;;;;;5015210;28;11571;-50
2022/01/14 10:25:23;;;;;;;;;23.75;23.75;10.80;99.90;;;;;;5014086;28;12542;-47
2022/01/14 10:27:56;;;;;;;;;29.00;26.75;10.80;99.90;;;;;;5007815;28;11583;-46
2022/01/14 10:30:29;;;;;;;;;24.00;21.25;10.80;99.90;;;;;;5013926;28;11709;-49
2022/01/14 10:33:07;;;;;;;;;17.50;17.50;10.80;99.90;;;;;;4989426;28;11556;-49
2022/01/14 10:35:45;;;;;;;;;29.75;29.00;10.80;99.90;;;;;;4998716;28;11566;-46
2022/01/14 10:38:19;;;;;;;;;28.25;27.75;10.70;99.90;;;;;;5011723;28;11639;-49
2022/01/14 10:40:55;;;;;;;;;19.75;19.75;10.70;99.90;;;;;;4992169;28;11728;-51
2022/01/14 10:43:35;;;;;;;;;27.00;25.50;10.70;99.90;;;;;;5010810;28;11534;-49
2022/01/14 10:46:10;;;;;;;;;32.75;31.50;10.80;99.90;;;;;;4997636;28;11573;-49
2022/01/14 10:48:46;;;;;;;;;26.50;26.00;10.70;99.90;;;;;;5016689;28;11594;-51
2022/01/14 10:51:18;;;;;;;;;25.00;25.00;10.60;99.90;;;;;;4982807;28;11481;-50
2022/01/14 10:53:54;;;;;;;;;20.25;20.25;10.60;99.90;;;;;;5011526;28;11586;-46
2022/01/14 10:56:27;;;;;;;;;24.50;23.75;10.70;99.90;;;;;;5014286;28;11537;-49
2022/01/14 10:58:59;;;;;;;;;24.75;24.75;10.70;99.90;;;;;;5003807;28;11571;-46
2022/01/14 11:01:33;;;;;;;;;21.75;19.75;10.70;99.90;;;;;;5012945;28;12335;-48
2022/01/14 11:04:14;;;;;;;;;26.25;26.25;10.70;99.90;;;;;;5002878;28;12299;-50
2022/01/14 11:06:44;;;;;;;;;29.25;27.75;10.60;99.90;;;;;;4980329;28;11570;-50
2022/01/14 11:09:18;;;;;;;;;28.50;28.50;10.60;99.90;;;;;;5003501;28;11537;-50
2022/01/14 11:11:50;;;;;;;;;27.50;27.50;10.50;99.90;;;;;;5014689;28;11551;-49
2022/01/14 11:14:22;;;;;;;;;25.25;25.00;10.50;99.90;;;;;;5011419;28;11794;-51
2022/01/14 11:16:54;;;;;;;;;27.00;25.25;10.40;99.90;;;;;;5015706;28;11539;-49
2022/01/14 11:19:28;;;;;;;;;25.75;24.00;10.50;99.90;;;;;;5013354;28;11633;-49
2022/01/14 11:24:48;;;;;;;;;22.75;22.75;10.50;99.90;;;;;;4995761;28;11590;-53
2022/01/14 11:27:20;;;;;;;;;20.25;20.25;10.50;99.90;;;;;;5013463;28;11547;-49
2022/01/14 11:29:57;;;;;;;;;23.00;23.00;10.40;99.90;;;;;;5013512;28;11738;-51
2022/01/14 11:32:29;;;;;;;;;22.75;21.00;10.40;99.90;;;;;;5015929;28;11695;-49
2022/01/14 11:35:00;;;;;;;;;29.25;29.25;10.40;99.90;;;;;;5015738;28;11724;-49
2022/01/14 11:37:30;;;;;;;;;24.25;22.75;10.40;99.90;;;;;;5017407;28;11555;-48
2022/01/14 11:40:09;;;;;;;;;27.25;25.25;10.40;99.90;;;;;;5015972;28;11551;-47
2022/01/14 11:42:59;;;;;;;;;24.25;24.00;10.40;99.90;;;;;;5015633;28;11520;-48
2022/01/14 11:45:52;;;;;;;;;22.25;20.75;10.40;99.90;;;;;;5017178;28;11575;-50
2022/01/14 11:48:43;;;;;;;;;20.25;18.50;10.30;99.90;;;;;;5013082;28;11605;-49
2022/01/14 11:51:18;;;;;;;;;20.50;20.50;10.30;99.90;;;;;;5014157;28;11506;-51
2022/01/14 11:53:55;;;;;;;;;22.25;22.25;10.30;99.90;;;;;;5017983;28;12591;-48
2022/01/14 11:56:32;;;;;;;;;30.00;30.00;10.20;99.90;;;;;;4983227;28;11628;-47
2022/01/14 11:59:22;;;;;;;;;32.50;30.25;10.20;99.90;;;;;;5012727;28;11600;-50
2022/01/14 12:01:58;;;;;;;;;33.50;33.00;10.20;99.90;;;;;;5015637;28;11843;-47
2022/01/14 12:05:05;;;;;;;;;35.50;33.00;10.20;99.90;;;;;;5015727;28;11538;-47
2022/01/14 12:08:10;;;;;;;;;29.50;28.75;10.10;99.90;;;;;;5016238;28;11543;-48
2022/01/14 12:11:04;;;;;;;;;28.00;26.50;10.20;99.90;;;;;;5011190;28;11584;-47
2022/01/14 12:14:02;;;;;;;;;27.25;27.00;10.20;99.90;;;;;;4991428;28;11661;-47
2022/01/14 12:16:49;;;;;;;;;28.50;26.50;10.20;99.90;;;;;;4994887;28;11606;-49
2022/01/14 12:19:23;;;;;;;;;23.50;23.50;10.10;99.90;;;;;;4994644;28;11575;-47
2022/01/14 12:21:55;;;;;;;;;28.25;28.25;10.10;99.90;;;;;;4995907;28;11570;-49
2022/01/14 12:24:31;;;;;;;;;24.50;24.50;10.10;99.90;;;;;;4992832;28;11738;-50
2022/01/14 12:27:07;;;;;;;;;27.50;27.50;10.10;99.90;;;;;;4995228;28;11590;-48
2022/01/14 12:29:37;;;;;;;;;23.50;23.50;10.10;99.90;;;;;;4997570;28;11600;-48
2022/01/14 12:32:15;;;;;;;;;25.50;22.50;10.10;99.90;;;;;;4994025;28;11629;-47
2022/01/14 12:34:47;;;;;;;;;21.75;20.00;10.10;99.90;;;;;;4992424;28;11597;-50
2022/01/14 12:37:24;;;;;;;;;22.25;22.25;10.10;99.90;;;;;;4994583;28;11623;-47
2022/01/14 12:39:55;;;;;;;;;24.50;24.50;10.00;99.90;;;;;;4995238;28;11611;-50
2022/01/14 12:42:26;;;;;;;;;22.75;22.75;10.00;99.90;;;;;;4992494;28;11603;-49
2022/01/14 12:44:59;;;;;;;;;23.50;23.50;10.00;99.90;;;;;;4993345;28;11744;-49
2022/01/14 12:47:34;;;;;;;;;23.75;23.75;10.00;99.90;;;;;;4993751;28;11587;-47
2022/01/14 12:50:08;;;;;;;;;20.75;20.75;10.00;99.90;;;;;;4995794;28;11597;-49
2022/01/14 12:52:51;;;;;;;;;25.50;25.50;10.00;99.90;;;;;;5008102;28;11625;-48
2022/01/14 12:55:23;;;;;;;;;16.75;16.00;9.90;99.90;;;;;;4991501;28;11604;-48
2022/01/14 12:57:57;;;;;;;;;23.25;21.25;9.90;99.90;;;;;;4991561;28;11611;-52
2022/01/14 13:00:27;;;;;;;;;21.00;21.00;9.90;99.90;;;;;;4994856;28;11757;-49
2022/01/14 13:02:59;;;;;;;;;24.00;22.75;9.90;99.90;;;;;;4995722;28;11609;-49
2022/01/14 13:05:31;;;;;;;;;25.50;25.50;9.90;99.90;;;;;;4993949;28;11740;-51
2022/01/14 13:08:02;;;;;;;;;25.00;25.00;9.80;99.90;;;;;;4996215;28;11789;-49
2022/01/14 13:10:37;;;;;;;;;27.75;27.75;9.80;99.90;;;;;;4994459;28;11589;-51
2022/01/14 13:13:08;;;;;;;;;25.00;25.00;9.70;99.90;;;;;;4998059;28;11560;-50
2022/01/14 13:15:39;;;;;;;;;25.75;25.75;9.80;99.90;;;;;;4995731;28;13665;-48
2022/01/14 13:18:20;;;;;;;;;26.25;26.25;9.80;99.90;;;;;;5014416;28;11573;-50
2022/01/14 13:20:52;;;;;;;;;29.25;29.25;9.80;99.90;;;;;;5011203;28;11575;-51
2022/01/14 13:23:25;;;;;;;;;26.00;26.00;9.70;99.90;;;;;;5016264;28;11621;-50
2022/01/14 13:25:59;;;;;;;;;26.75;25.50;9.70;99.90;;;;;;5013982;28;11601;-48
2022/01/14 13:28:29;;;;;;;;;22.75;21.00;9.70;99.90;;;;;;5014204;28;12252;-48
2022/01/14 13:31:00;;;;;;;;;25.25;25.25;9.60;99.90;;;;;;4998191;28;12223;-50
2022/01/14 13:33:31;;;;;;;;;28.50;27.75;9.60;99.90;;;;;;5016587;28;11472;-50